createdAt,value
2018-07-20T00:02:06.334Z,9.63
2018-07-20T00:04:35.360Z,9.30
2018-07-20T00:07:04.280Z,8.53
2018-07-20T00:09:33.187Z,9.10
2018-07-20T00:12:02.115Z,9.37
2018-07-20T00:14:31.044Z,9.30
2018-07-20T00:16:59.970Z,9.47
2018-07-20T00:19:28.904Z,9.80
2018-07-20T00:21:57.832Z,11.83
2018-07-20T00:24:26.773Z,8.43
2018-07-20T00:26:55.687Z,9.77
2018-07-20T00:29:24.612Z,9.93
2018-07-20T00:31:53.559Z,9.70
2018-07-20T00:34:22.485Z,9.93
2018-07-20T00:36:51.416Z,9.87
2018-07-20T00:39:20.371Z,11.17
2018-07-20T00:41:49.292Z,9.90
2018-07-20T00:44:18.263Z,9.67
2018-07-20T00:46:47.216Z,9.00
2018-07-20T00:49:16.161Z,10.03
2018-07-20T00:51:45.117Z,9.53
2018-07-20T00:54:14.079Z,9.97
2018-07-20T00:56:43.011Z,9.80
2018-07-20T00:59:12.001Z,10.30
2018-07-20T01:01:40.928Z,9.50
2018-07-20T01:04:09.863Z,10.20
2018-07-20T01:06:38.787Z,10.93
2018-07-20T01:09:08.991Z,10.63
2018-07-20T01:11:37.996Z,11.13
2018-07-20T01:14:07.169Z,10.33
2018-07-20T01:16:36.487Z,10.57
2018-07-20T01:19:05.457Z,11.03
2018-07-20T01:21:34.508Z,10.23
2018-07-20T01:24:03.486Z,10.57
2018-07-20T01:26:32.474Z,10.90
2018-07-20T01:29:01.403Z,10.53
2018-07-20T01:31:30.348Z,9.83
2018-07-20T01:33:59.267Z,9.87
2018-07-20T01:36:28.203Z,10.07
2018-07-20T01:38:57.154Z,10.17
2018-07-20T01:41:26.123Z,11.23
2018-07-20T01:43:55.029Z,10.67
2018-07-20T01:46:23.975Z,10.97
2018-07-20T01:48:52.920Z,11.00
2018-07-20T01:51:21.833Z,12.10
2018-07-20T01:53:50.796Z,10.40
2018-07-20T01:56:19.743Z,9.83
2018-07-20T01:58:48.744Z,10.87
2018-07-20T02:01:17.800Z,11.67
2018-07-20T02:03:46.748Z,11.30
2018-07-20T02:06:15.691Z,10.80
2018-07-20T02:08:44.632Z,10.03
2018-07-20T02:11:13.600Z,10.73
2018-07-20T02:13:42.522Z,10.47
2018-07-20T02:16:11.498Z,10.37
2018-07-20T02:18:40.413Z,10.90
2018-07-20T02:21:09.494Z,10.63
2018-07-20T02:23:38.456Z,11.20
2018-07-20T02:26:07.402Z,10.07
2018-07-20T02:28:36.299Z,10.80
2018-07-20T02:31:05.269Z,10.50
2018-07-20T02:33:34.220Z,12.03
2018-07-20T02:36:03.820Z,11.57
2018-07-20T02:38:32.771Z,11.37
2018-07-20T02:41:01.823Z,11.50
2018-07-20T02:43:30.767Z,12.57
2018-07-20T02:45:59.886Z,11.40
2018-07-20T02:48:28.835Z,12.77
2018-07-20T02:50:57.853Z,12.10
2018-07-20T02:53:26.793Z,11.83
2018-07-20T02:55:55.728Z,12.53
2018-07-20T02:58:24.663Z,13.13
2018-07-20T03:00:53.657Z,11.47
2018-07-20T03:03:22.599Z,12.20
2018-07-20T03:05:51.551Z,11.43
2018-07-20T03:08:20.469Z,12.67
2018-07-20T03:10:49.391Z,12.60
2018-07-20T03:13:18.409Z,12.43
2018-07-20T03:15:47.350Z,11.93
2018-07-20T03:18:16.278Z,10.40
2018-07-20T03:20:45.206Z,12.53
2018-07-20T03:23:14.144Z,11.73
2018-07-20T03:25:43.049Z,13.50
2018-07-20T03:28:11.961Z,12.87
2018-07-20T03:30:40.881Z,13.43
2018-07-20T03:33:09.873Z,12.17
2018-07-20T03:35:38.808Z,12.33
2018-07-20T03:38:07.767Z,12.80
2018-07-20T03:40:36.764Z,12.53
2018-07-20T03:43:05.723Z,12.60
2018-07-20T03:45:34.657Z,13.40
2018-07-20T03:48:03.661Z,12.23
2018-07-20T03:50:32.616Z,14.23
2018-07-20T03:53:01.557Z,13.07
2018-07-20T03:55:31.492Z,11.37
2018-07-20T03:58:00.503Z,12.50
2018-07-20T04:00:29.437Z,12.97
2018-07-20T04:02:58.476Z,12.03
2018-07-20T04:05:27.415Z,12.83
2018-07-20T04:07:56.468Z,13.00
2018-07-20T04:10:25.420Z,13.23
2018-07-20T04:12:54.353Z,12.87
2018-07-20T04:15:23.282Z,13.17
2018-07-20T04:17:52.205Z,11.53
2018-07-20T04:20:21.134Z,11.20
2018-07-20T04:22:50.023Z,12.47
2018-07-20T04:25:18.965Z,12.47
2018-07-20T04:27:47.891Z,11.63
2018-07-20T04:30:16.810Z,12.07
2018-07-20T04:32:45.814Z,11.60
2018-07-20T04:35:14.712Z,12.43
2018-07-20T04:37:43.849Z,11.60
2018-07-20T04:40:12.781Z,12.40
2018-07-20T04:42:41.698Z,11.50
2018-07-20T04:45:10.772Z,11.77
2018-07-20T04:47:39.689Z,11.30
2018-07-20T04:50:08.649Z,11.67
2018-07-20T04:52:37.572Z,13.73
2018-07-20T04:55:06.509Z,13.03
2018-07-20T04:57:35.463Z,12.47
2018-07-20T05:00:04.776Z,12.43
2018-07-20T05:02:33.721Z,12.50
2018-07-20T05:05:02.720Z,13.10
2018-07-20T05:07:31.652Z,13.20
2018-07-20T05:10:00.623Z,12.97
2018-07-20T05:12:29.609Z,13.77
2018-07-20T05:14:58.515Z,12.83
2018-07-20T05:17:27.457Z,13.37
2018-07-20T05:19:56.390Z,13.13
2018-07-20T05:22:25.315Z,11.93
2018-07-20T05:24:54.257Z,13.07
2018-07-20T05:27:23.319Z,13.80
2018-07-20T05:29:52.265Z,14.00
2018-07-20T05:32:21.320Z,12.40
2018-07-20T05:34:50.250Z,12.93
2018-07-20T05:37:19.209Z,10.93
2018-07-20T05:39:48.143Z,11.13
2018-07-20T05:42:17.123Z,10.90
2018-07-20T05:44:46.043Z,11.37
2018-07-20T05:47:14.967Z,11.40
2018-07-20T05:49:44.000Z,11.70
2018-07-20T05:52:12.968Z,11.83
2018-07-20T05:54:41.905Z,10.60
2018-07-20T05:57:10.953Z,11.07
2018-07-20T05:59:39.887Z,11.17
2018-07-20T06:02:08.817Z,12.23
2018-07-20T06:04:37.789Z,11.23
2018-07-20T06:07:06.775Z,10.67
2018-07-20T06:09:35.742Z,10.17
2018-07-20T06:12:04.689Z,10.90
2018-07-20T06:14:33.623Z,9.97
2018-07-20T06:17:02.680Z,8.60
2018-07-20T06:19:31.597Z,9.27
2018-07-20T06:22:00.523Z,8.87
2018-07-20T06:24:29.495Z,9.43
2018-07-20T06:26:58.440Z,8.70
2018-07-20T06:29:27.374Z,9.43
2018-07-20T06:31:56.375Z,8.67
2018-07-20T06:34:25.360Z,8.10
2018-07-20T06:36:54.306Z,8.30
2018-07-20T06:39:23.272Z,7.83
2018-07-20T06:41:52.211Z,8.73
2018-07-20T06:44:21.128Z,8.97
2018-07-20T06:46:50.212Z,8.30
2018-07-20T06:49:19.128Z,8.15
2018-07-20T06:51:48.299Z,7.75
2018-07-20T06:54:17.238Z,7.40
2018-07-20T06:56:46.157Z,7.95
2018-07-20T06:59:15.092Z,7.70
2018-07-20T07:01:44.054Z,7.25
2018-07-20T07:04:12.976Z,7.22
2018-07-20T07:06:41.925Z,7.80
2018-07-20T07:09:10.993Z,6.25
2018-07-20T07:11:40.313Z,7.67
2018-07-20T07:14:09.598Z,6.90
2018-07-20T07:16:38.689Z,6.30
2018-07-20T07:19:07.377Z,6.80
2018-07-20T07:21:36.313Z,7.22
2018-07-20T07:24:05.260Z,6.30
2018-07-20T07:26:34.275Z,5.50
2018-07-20T07:29:03.226Z,6.08
2018-07-20T07:31:32.172Z,5.58
2018-07-20T07:34:01.147Z,6.10
2018-07-20T07:36:30.076Z,5.90
2018-07-20T07:38:59.045Z,5.58
2018-07-20T07:41:28.232Z,5.12
2018-07-20T07:43:57.390Z,5.00
2018-07-20T07:46:26.327Z,5.62
2018-07-20T07:48:55.271Z,5.22
2018-07-20T07:51:24.229Z,4.37
2018-07-20T07:53:53.160Z,4.70
2018-07-20T07:56:22.092Z,4.67
2018-07-20T07:58:50.990Z,5.42
2018-07-20T08:01:19.923Z,4.12
2018-07-20T08:03:48.881Z,4.35
2018-07-20T08:06:17.852Z,3.95
2018-07-20T08:08:46.820Z,4.20
2018-07-20T08:11:15.723Z,4.10
2018-07-20T08:13:44.692Z,4.17
2018-07-20T08:16:13.680Z,4.50
2018-07-20T08:18:42.663Z,5.05
2018-07-20T08:21:11.708Z,5.80
2018-07-20T08:23:40.761Z,4.90
2018-07-20T08:26:09.727Z,4.95
2018-07-20T08:28:39.340Z,5.15
2018-07-20T08:31:08.976Z,4.35
2018-07-20T08:33:37.940Z,4.30
2018-07-20T08:36:06.886Z,5.22
2018-07-20T08:38:35.827Z,4.30
2018-07-20T08:41:04.777Z,4.87
2018-07-20T08:43:33.732Z,4.80
2018-07-20T08:46:02.664Z,4.20
2018-07-20T08:48:31.575Z,4.37
2018-07-20T08:51:00.684Z,4.20
2018-07-20T08:53:29.630Z,4.40
2018-07-20T08:55:58.594Z,5.22
2018-07-20T08:58:27.538Z,4.37
2018-07-20T09:00:56.579Z,3.98
2018-07-20T09:03:25.717Z,4.15
2018-07-20T09:05:54.711Z,4.37
2018-07-20T09:08:23.665Z,4.62
2018-07-20T09:10:52.707Z,4.15
2018-07-20T09:13:21.704Z,4.25
2018-07-20T09:15:50.685Z,4.05
2018-07-20T09:18:19.607Z,4.10
2018-07-20T09:20:48.610Z,4.08
2018-07-20T09:23:17.514Z,4.25
2018-07-20T09:25:46.498Z,4.15
2018-07-20T09:28:15.478Z,3.75
2018-07-20T09:30:44.412Z,4.20
2018-07-20T09:33:13.376Z,4.70
2018-07-20T09:35:42.348Z,3.70
2018-07-20T09:38:11.349Z,3.87
2018-07-20T09:40:40.293Z,3.65
2018-07-20T09:43:09.227Z,4.03
2018-07-20T09:45:38.185Z,3.95
2018-07-20T09:48:07.120Z,3.87
2018-07-20T09:50:36.049Z,4.35
2018-07-20T09:53:05.010Z,4.42
2018-07-20T09:55:33.936Z,4.90
2018-07-20T09:58:03.307Z,4.33
2018-07-20T10:00:42.320Z,4.95
2018-07-20T10:03:11.276Z,4.20
2018-07-20T10:05:40.220Z,5.12
2018-07-20T10:08:09.340Z,4.78
2018-07-20T10:10:38.286Z,4.55
2018-07-20T10:13:07.252Z,3.85
2018-07-20T10:15:36.427Z,4.87
2018-07-20T10:18:05.339Z,4.67
2018-07-20T10:20:34.259Z,4.70
2018-07-20T10:23:03.279Z,4.50
2018-07-20T10:25:32.722Z,4.58
2018-07-20T10:28:01.659Z,4.83
2018-07-20T10:30:30.864Z,5.42
2018-07-20T10:32:59.906Z,4.08
2018-07-20T10:35:28.838Z,4.00
2018-07-20T10:37:57.852Z,5.15
2018-07-20T10:40:27.772Z,4.87
2018-07-20T10:42:58.813Z,4.33
2018-07-20T10:45:27.908Z,5.28
2018-07-20T10:47:56.888Z,4.47
2018-07-20T10:50:25.879Z,4.40
2018-07-20T10:52:54.852Z,3.62
2018-07-20T10:55:23.775Z,4.25
2018-07-20T10:57:52.817Z,4.60
2018-07-20T11:00:21.715Z,3.75
2018-07-20T11:02:50.625Z,4.28
2018-07-20T11:05:19.589Z,4.55
2018-07-20T11:07:48.504Z,4.62
2018-07-20T11:10:17.434Z,4.30
2018-07-20T11:12:46.367Z,4.65
2018-07-20T11:15:15.266Z,4.33
2018-07-20T11:17:44.228Z,4.50
2018-07-20T11:20:13.144Z,4.10
2018-07-20T11:22:42.908Z,4.42
2018-07-20T11:25:11.905Z,4.22
2018-07-20T11:27:40.859Z,5.08
2018-07-20T11:30:09.845Z,4.55
2018-07-20T11:32:38.790Z,5.10
2018-07-20T11:35:07.725Z,4.87
2018-07-20T11:37:36.624Z,4.12
2018-07-20T11:40:05.543Z,4.28
2018-07-20T11:42:34.428Z,4.17
2018-07-20T11:45:03.347Z,4.45
2018-07-20T11:47:32.360Z,3.85
2018-07-20T11:50:01.256Z,4.67
2018-07-20T11:52:30.396Z,6.28
2018-07-20T11:54:59.357Z,4.50
2018-07-20T11:57:28.281Z,5.05
2018-07-20T11:59:57.239Z,4.55
2018-07-20T12:02:26.168Z,4.47
2018-07-20T12:04:55.106Z,4.67
2018-07-20T12:07:24.049Z,4.45
2018-07-20T12:09:53.015Z,4.60
2018-07-20T12:12:22.005Z,5.00
2018-07-20T12:14:51.083Z,4.58
2018-07-20T12:17:20.029Z,4.97
2018-07-20T12:19:48.967Z,5.00
2018-07-20T12:22:17.882Z,4.45
2018-07-20T12:24:46.831Z,5.00
2018-07-20T12:27:15.747Z,5.03
2018-07-20T12:29:45.260Z,4.97
2018-07-20T12:32:14.157Z,4.50
2018-07-20T12:34:43.120Z,4.60
2018-07-20T12:37:12.044Z,4.05
2018-07-20T12:39:41.010Z,4.40
2018-07-20T12:42:10.001Z,4.30
2018-07-20T12:46:39.850Z,4.30
2018-07-20T12:49:08.960Z,4.40
2018-07-20T12:51:37.891Z,4.10
2018-07-20T12:54:06.849Z,4.50
2018-07-20T12:56:35.823Z,4.37
2018-07-20T12:59:05.024Z,4.83
2018-07-20T13:01:33.933Z,5.20
2018-07-20T13:04:03.370Z,4.22
2018-07-20T13:06:32.395Z,4.60
2018-07-20T13:09:02.256Z,4.72
2018-07-20T13:11:31.324Z,4.90
2018-07-20T13:14:00.274Z,5.12
2018-07-20T13:16:29.174Z,5.00
2018-07-20T13:18:58.109Z,4.80
2018-07-20T13:21:27.032Z,4.83
2018-07-20T13:23:55.985Z,4.90
2018-07-20T13:26:24.969Z,4.25
2018-07-20T13:28:53.932Z,4.78
2018-07-20T13:31:22.938Z,4.05
2018-07-20T13:33:51.826Z,4.33
2018-07-20T13:36:20.784Z,4.95
2018-07-20T13:38:49.964Z,4.55
2018-07-20T13:41:18.884Z,5.20
2018-07-20T13:43:47.793Z,5.00
2018-07-20T13:46:16.704Z,4.47
2018-07-20T13:48:45.812Z,6.00
2018-07-20T13:51:14.718Z,4.12
2018-07-20T13:53:43.672Z,4.87
2018-07-20T13:56:12.582Z,4.55
2018-07-20T13:58:41.499Z,4.95
2018-07-20T14:01:10.514Z,5.33
2018-07-20T14:03:39.680Z,4.55
2018-07-20T14:06:08.634Z,5.42
2018-07-20T14:08:37.598Z,4.75
2018-07-20T14:11:06.691Z,4.45
2018-07-20T14:13:35.868Z,4.75
2018-07-20T14:16:04.973Z,4.37
2018-07-20T14:18:33.932Z,4.55
2018-07-20T14:21:02.860Z,4.65
2018-07-20T14:23:31.767Z,4.12
2018-07-20T14:26:00.681Z,4.58
2018-07-20T14:28:29.663Z,4.30
2018-07-20T14:30:58.670Z,4.60
2018-07-20T14:33:27.783Z,4.78
2018-07-20T14:35:56.693Z,4.83
2018-07-20T14:38:25.639Z,4.72
2018-07-20T14:40:54.613Z,5.03
2018-07-20T14:43:23.664Z,5.10
2018-07-20T14:45:52.681Z,4.62
2018-07-20T14:48:21.596Z,5.10
2018-07-20T14:50:50.527Z,5.05
2018-07-20T14:53:19.673Z,4.37
2018-07-20T14:55:48.652Z,4.15
2018-07-20T14:58:17.560Z,3.80
2018-07-20T15:00:46.489Z,4.17
2018-07-20T15:03:15.420Z,4.53
2018-07-20T15:05:44.338Z,4.45
2018-07-20T15:08:13.333Z,4.75
2018-07-20T15:10:42.371Z,4.62
2018-07-20T15:13:11.272Z,4.75
2018-07-20T15:15:40.241Z,4.25
2018-07-20T15:18:09.197Z,4.28
2018-07-20T15:20:38.117Z,4.62
2018-07-20T15:23:07.184Z,4.60
2018-07-20T15:25:36.310Z,4.22
2018-07-20T15:28:05.383Z,4.47
2018-07-20T15:30:34.279Z,4.33
2018-07-20T15:33:03.257Z,4.60
2018-07-20T15:35:32.157Z,4.20
2018-07-20T15:38:01.113Z,4.62
2018-07-20T15:40:30.037Z,3.72
2018-07-20T15:42:58.945Z,4.53
2018-07-20T15:45:27.892Z,5.17
2018-07-20T15:47:56.844Z,4.50
2018-07-20T15:50:25.784Z,5.00
2018-07-20T15:53:36.268Z,3.98
2018-07-20T15:55:23.795Z,4.37
2018-07-20T15:57:52.779Z,4.87
2018-07-20T16:00:21.705Z,4.17
2018-07-20T16:02:50.628Z,4.42
2018-07-20T16:05:19.568Z,5.08
2018-07-20T16:07:48.492Z,4.78
2018-07-20T16:10:17.407Z,4.55
2018-07-20T16:12:46.326Z,4.10
2018-07-20T16:15:15.266Z,4.87
2018-07-20T16:17:44.194Z,4.50
2018-07-20T16:20:13.117Z,4.55
2018-07-20T16:22:42.275Z,4.90
2018-07-20T16:25:11.187Z,4.17
2018-07-20T16:27:40.115Z,4.80
2018-07-20T16:30:09.147Z,5.00
2018-07-20T16:32:38.072Z,4.70
2018-07-20T16:35:07.295Z,4.83
2018-07-20T16:37:36.238Z,5.30
2018-07-20T16:40:05.128Z,4.87
2018-07-20T16:42:34.077Z,4.60
2018-07-20T16:45:03.024Z,5.00
2018-07-20T16:47:31.932Z,4.85
2018-07-20T16:50:01.959Z,4.55
2018-07-20T16:52:30.881Z,4.90
2018-07-20T16:54:59.812Z,4.60
2018-07-20T16:57:28.744Z,4.90
2018-07-20T16:59:57.651Z,5.08
2018-07-20T17:02:26.595Z,4.75
2018-07-20T17:04:55.585Z,4.67
2018-07-20T17:07:24.507Z,4.55
2018-07-20T17:09:53.467Z,4.43
2018-07-20T17:12:22.440Z,4.87
2018-07-20T17:14:51.383Z,5.20
2018-07-20T17:17:20.341Z,5.40
2018-07-20T17:19:49.579Z,4.60
2018-07-20T17:22:18.528Z,5.37
2018-07-20T17:24:47.522Z,5.50
2018-07-20T17:27:16.755Z,5.10
2018-07-20T17:29:46.018Z,5.30
2018-07-20T17:32:14.932Z,5.33
2018-07-20T17:34:43.886Z,5.30
2018-07-20T17:37:12.912Z,6.13
2018-07-20T17:39:41.845Z,5.17
2018-07-20T17:42:11.036Z,5.23
2018-07-20T17:44:40.005Z,5.03
2018-07-20T17:47:09.302Z,6.00
2018-07-20T17:49:38.236Z,4.97
2018-07-20T17:52:07.157Z,5.90
2018-07-20T17:54:36.090Z,5.80
2018-07-20T17:57:05.078Z,6.20
2018-07-20T17:59:34.051Z,5.27
2018-07-20T18:02:03.004Z,5.57
2018-07-20T18:04:31.916Z,5.23
2018-07-20T18:07:00.908Z,5.00
2018-07-20T18:09:29.822Z,4.77
2018-07-20T18:11:58.798Z,6.03
2018-07-20T18:14:27.719Z,5.47
2018-07-20T18:16:56.648Z,5.17
2018-07-20T18:19:25.556Z,5.77
2018-07-20T18:21:54.499Z,5.27
2018-07-20T18:24:23.657Z,5.70
2018-07-20T18:26:53.602Z,6.43
2018-07-20T18:29:22.488Z,6.30
2018-07-20T18:31:51.443Z,5.40
2018-07-20T18:34:20.352Z,5.70
2018-07-20T18:36:49.255Z,6.20
2018-07-20T18:39:18.169Z,6.30
2018-07-20T18:41:47.135Z,5.90
2018-07-20T18:44:16.033Z,6.17
2018-07-20T18:46:44.959Z,7.83
2018-07-20T18:49:13.891Z,7.23
2018-07-20T18:51:43.493Z,6.63
2018-07-20T18:54:12.416Z,7.30
2018-07-20T18:56:41.403Z,7.97
2018-07-20T18:59:11.174Z,7.30
2018-07-20T19:01:40.096Z,7.00
2018-07-20T19:04:09.063Z,7.33
2018-07-20T19:06:38.017Z,7.20
2018-07-20T19:09:08.967Z,6.27
2018-07-20T19:11:38.160Z,6.23
2018-07-20T19:14:07.120Z,8.00
2018-07-20T19:16:36.129Z,7.07
2018-07-20T19:19:05.112Z,6.57
2018-07-20T19:21:34.060Z,7.70
2018-07-20T19:24:03.178Z,7.27
2018-07-20T19:26:32.111Z,6.67
2018-07-20T19:29:01.075Z,8.07
2018-07-20T19:31:30.028Z,8.17
2018-07-20T19:33:58.941Z,7.97
2018-07-20T19:36:27.825Z,6.73
2018-07-20T19:38:56.763Z,6.80
2018-07-20T19:41:25.676Z,6.70
2018-07-20T19:43:54.823Z,6.67
2018-07-20T19:46:23.746Z,6.50
2018-07-20T19:48:52.671Z,5.70
2018-07-20T19:51:21.618Z,6.80
2018-07-20T19:53:50.585Z,6.57
2018-07-20T19:56:19.555Z,6.33
2018-07-20T19:58:48.581Z,6.70
2018-07-20T20:01:17.468Z,6.33
2018-07-20T20:03:46.426Z,6.27
2018-07-20T20:06:15.425Z,6.80
2018-07-20T20:08:44.657Z,6.63
2018-07-20T20:11:13.687Z,6.57
2018-07-20T20:13:42.761Z,6.23
2018-07-20T20:16:11.724Z,6.73
2018-07-20T20:18:40.702Z,7.20
2018-07-20T20:21:09.754Z,6.47
2018-07-20T20:23:38.682Z,6.13
2018-07-20T20:26:07.743Z,7.03
2018-07-20T20:28:36.792Z,7.37
2018-07-20T20:31:05.797Z,6.40
2018-07-20T20:33:34.772Z,6.37
2018-07-20T20:36:04.654Z,6.90
2018-07-20T20:38:34.934Z,6.60
2018-07-20T20:41:03.862Z,7.03
2018-07-20T20:43:32.909Z,6.53
2018-07-20T20:46:02.004Z,8.03
2018-07-20T20:48:31.093Z,7.83
2018-07-20T20:51:00.181Z,8.03
2018-07-20T20:53:29.088Z,7.43
2018-07-20T20:55:58.105Z,6.53
2018-07-20T20:58:27.040Z,7.47
2018-07-20T21:00:55.945Z,6.73
2018-07-20T21:03:24.842Z,6.83
2018-07-20T21:05:53.743Z,7.37
2018-07-20T21:08:22.888Z,6.70
2018-07-20T21:10:51.864Z,6.90
2018-07-20T21:13:20.812Z,7.20
2018-07-20T21:15:49.743Z,8.50
2018-07-20T21:18:18.864Z,10.13
2018-07-20T21:20:47.935Z,8.77
2018-07-20T21:23:16.972Z,10.17
2018-07-20T21:25:45.902Z,7.87
2018-07-20T21:28:14.838Z,7.20
2018-07-20T21:30:43.799Z,8.37
2018-07-20T21:33:12.805Z,7.90
2018-07-20T21:35:41.739Z,8.40
2018-07-20T21:38:10.684Z,8.70
2018-07-20T21:40:39.721Z,7.83
2018-07-20T21:43:08.920Z,8.03
2018-07-20T21:45:37.864Z,8.23
2018-07-20T21:48:07.067Z,7.57
2018-07-20T21:50:36.003Z,8.00
2018-07-20T21:53:04.912Z,7.27
2018-07-20T21:55:34.125Z,8.27
2018-07-20T21:58:02.997Z,7.43
2018-07-20T22:00:31.932Z,8.37
2018-07-20T22:03:00.836Z,8.23
2018-07-20T22:05:29.836Z,8.07
2018-07-20T22:07:58.818Z,9.17
2018-07-20T22:10:27.804Z,9.57
2018-07-20T22:12:56.735Z,8.70
2018-07-20T22:15:25.661Z,9.57
2018-07-20T22:17:54.782Z,7.60
2018-07-20T22:20:23.975Z,8.60
2018-07-20T22:22:52.961Z,8.20
2018-07-20T22:25:21.892Z,8.57
2018-07-20T22:27:50.828Z,7.97
2018-07-20T22:30:19.757Z,8.63
2018-07-20T22:32:48.713Z,8.63
2018-07-20T22:35:17.660Z,9.10
2018-07-20T22:37:46.569Z,9.40
2018-07-20T22:40:15.632Z,8.53
2018-07-20T22:42:44.581Z,9.47
2018-07-20T22:45:13.505Z,8.00
2018-07-20T22:47:42.451Z,8.17
2018-07-20T22:50:11.795Z,7.73
2018-07-20T22:52:40.971Z,8.17
2018-07-20T22:55:09.900Z,8.13
2018-07-20T22:57:38.872Z,7.57
2018-07-20T23:00:07.786Z,7.03
2018-07-20T23:02:36.752Z,9.07
2018-07-20T23:05:06.019Z,8.53
2018-07-20T23:07:34.942Z,7.70
2018-07-20T23:10:03.880Z,8.60
2018-07-20T23:12:32.965Z,8.17
2018-07-20T23:15:02.111Z,7.90
2018-07-20T23:17:31.025Z,6.87
2018-07-20T23:20:00.001Z,7.37
2018-07-20T23:22:28.972Z,7.40
2018-07-20T23:24:57.868Z,9.20
2018-07-20T23:27:26.800Z,7.93
2018-07-20T23:29:55.756Z,8.20
2018-07-20T23:32:24.700Z,9.33
2018-07-20T23:34:53.617Z,10.47
2018-07-20T23:37:22.519Z,9.60
2018-07-20T23:39:51.540Z,9.80
2018-07-20T23:42:20.616Z,11.00
2018-07-20T23:44:49.596Z,9.73
2018-07-20T23:47:18.785Z,8.83
2018-07-20T23:49:47.943Z,8.80
2018-07-20T23:52:17.235Z,8.30
2018-07-20T23:54:46.170Z,10.93
2018-07-20T23:57:15.128Z,7.70
2018-07-20T23:59:44.053Z,8.60
